Time;durP1;ratioP1;P1;durP2;ratioP2;P2;SDS_P1;SDS_P2;PMS_P1;PMS_P2;Temp;Humidity;BMP_temperature;BMP_pressure;BME280_temperature;BME280_humidity;BME280_pressure;Samples;Min_cycle;Max_cycle;Signal;HPM_P1;HPM_P2
2022/03/03 00:00:00;;;;;;;17.27;10.43;;;;;;;;;;5094538;28;20484;-68
2022/03/03 00:02:28;;;;;;;16.60;11.83;;;;;;;;;;5093252;28;20483;-68
2022/03/03 00:04:56;;;;;;;20.10;11.30;;;;;;;;;;5093936;28;20536;-68
2022/03/03 00:07:25;;;;;;;12.17;9.97;;;;;;;;;;5090063;28;20804;-68
2022/03/03 00:09:52;;;;;;;18.13;9.87;;;;;;;;;;5093917;28;20983;-68
2022/03/03 00:12:20;;;;;;;14.97;10.13;;;;;;;;;;5094206;28;20461;-68
2022/03/03 00:14:47;;;;;;;16.20;10.47;;;;;;;;;;5093232;28;20540;-69
2022/03/03 00:17:14;;;;;;;14.50;10.13;;;;;;;;;;5093835;28;20481;-68
2022/03/03 00:19:42;;;;;;;21.33;11.40;;;;;;;;;;5093537;28;20535;-68
2022/03/03 00:22:09;;;;;;;13.63;10.90;;;;;;;;;;5092822;28;20566;-70
2022/03/03 00:24:38;;;;;;;15.97;10.57;;;;;;;;;;5092880;28;20501;-68
2022/03/03 00:27:06;;;;;;;15.93;10.60;;;;;;;;;;5092917;28;20523;-69
2022/03/03 00:29:33;;;;;;;15.70;11.17;;;;;;;;;;5093469;28;20525;-68
2022/03/03 00:32:01;;;;;;;16.70;11.60;;;;;;;;;;5093197;28;20455;-68
2022/03/03 00:34:28;;;;;;;14.80;9.80;;;;;;;;;;5092510;28;20531;-68
2022/03/03 00:36:55;;;;;;;17.63;9.90;;;;;;;;;;5093278;28;21004;-67
2022/03/03 00:39:22;;;;;;;17.70;9.33;;;;;;;;;;5093034;28;20445;-69
2022/03/03 00:41:51;;;;;;;11.83;9.03;;;;;;;;;;5093953;28;20832;-68
2022/03/03 00:44:18;;;;;;;15.30;11.13;;;;;;;;;;5093296;28;20441;-68
2022/03/03 00:46:46;;;;;;;13.03;9.67;;;;;;;;;;5091567;28;20454;-68
2022/03/03 00:49:13;;;;;;;19.80;9.83;;;;;;;;;;5082128;28;20476;-68
2022/03/03 00:51:40;;;;;;;15.87;10.60;;;;;;;;;;5092708;28;20547;-68
2022/03/03 00:54:07;;;;;;;17.33;10.17;;;;;;;;;;5092868;28;20577;-68
2022/03/03 00:56:34;;;;;;;11.47;9.20;;;;;;;;;;5092552;28;20527;-69
2022/03/03 00:59:03;;;;;;;18.73;11.00;;;;;;;;;;5093289;28;20452;-68
2022/03/03 01:01:30;;;;;;;18.03;11.13;;;;;;;;;;5092097;28;20956;-69
2022/03/03 01:03:57;;;;;;;13.47;9.40;;;;;;;;;;5091270;28;20444;-69
2022/03/03 01:06:26;;;;;;;15.77;10.63;;;;;;;;;;5092665;28;20887;-68
2022/03/03 01:08:54;;;;;;;15.40;10.57;;;;;;;;;;5092864;28;20454;-68
2022/03/03 01:11:21;;;;;;;16.90;10.23;;;;;;;;;;5092700;28;20506;-68
2022/03/03 01:13:48;;;;;;;15.30;11.17;;;;;;;;;;5092359;28;20528;-68
2022/03/03 01:16:16;;;;;;;14.47;10.47;;;;;;;;;;5092117;28;20445;-68
2022/03/03 01:18:44;;;;;;;15.20;9.73;;;;;;;;;;5091946;28;20706;-68
2022/03/03 01:21:11;;;;;;;13.90;10.70;;;;;;;;;;5092635;28;20518;-68
2022/03/03 01:23:38;;;;;;;16.63;11.00;;;;;;;;;;5091444;28;20488;-68
2022/03/03 01:26:05;;;;;;;19.13;10.97;;;;;;;;;;5092715;28;20456;-68
2022/03/03 01:28:32;;;;;;;12.70;8.93;;;;;;;;;;5091993;28;20535;-69
2022/03/03 01:30:59;;;;;;;17.57;11.27;;;;;;;;;;5092850;28;20477;-68
2022/03/03 01:33:28;;;;;;;17.70;11.70;;;;;;;;;;5083029;28;20946;-68
2022/03/03 01:35:55;;;;;;;21.70;9.93;;;;;;;;;;5092526;28;20532;-69
2022/03/03 01:38:22;;;;;;;19.03;10.07;;;;;;;;;;5091821;28;20536;-68
2022/03/03 01:40:50;;;;;;;16.33;10.70;;;;;;;;;;5092677;28;20451;-68
2022/03/03 01:43:17;;;;;;;15.90;11.07;;;;;;;;;;5092350;28;20480;-68
2022/03/03 01:45:45;;;;;;;13.50;10.03;;;;;;;;;;5091621;28;20487;-68
2022/03/03 01:48:12;;;;;;;15.33;10.10;;;;;;;;;;5092867;28;20535;-68
2022/03/03 01:50:40;;;;;;;13.47;9.83;;;;;;;;;;5087706;28;20541;-68
2022/03/03 01:53:08;;;;;;;19.00;10.37;;;;;;;;;;5080648;28;20476;-68
2022/03/03 01:55:35;;;;;;;18.97;11.70;;;;;;;;;;5092222;28;20452;-68
2022/03/03 01:58:03;;;;;;;14.07;10.90;;;;;;;;;;5092531;28;20861;-69
2022/03/03 02:00:30;;;;;;;14.20;9.83;;;;;;;;;;5091304;28;20452;-69
2022/03/03 02:03:00;;;;;;;14.00;10.00;;;;;;;;;;5091586;28;20481;-69
2022/03/03 02:05:27;;;;;;;16.90;12.00;;;;;;;;;;5091200;28;20487;-69
2022/03/03 02:07:57;;;;;;;13.70;10.40;;;;;;;;;;5091635;28;20952;-68
2022/03/03 02:10:24;;;;;;;16.70;12.40;;;;;;;;;;5091274;28;20501;-68
2022/03/03 02:12:51;;;;;;;13.33;10.03;;;;;;;;;;5091723;28;20790;-69
2022/03/03 02:15:19;;;;;;;17.30;11.47;;;;;;;;;;5091198;28;20453;-68
2022/03/03 02:17:47;;;;;;;16.60;11.73;;;;;;;;;;5091612;28;20445;-68
2022/03/03 02:20:23;;;;;;;15.60;10.80;;;;;;;;;;5091684;28;20433;-68
2022/03/03 02:22:50;;;;;;;17.77;9.83;;;;;;;;;;5090947;28;20468;-68
2022/03/03 02:25:17;;;;;;;16.73;11.10;;;;;;;;;;5091636;28;20452;-69
2022/03/03 02:27:45;;;;;;;19.67;11.70;;;;;;;;;;5090994;28;20434;-69
2022/03/03 02:30:13;;;;;;;15.43;9.90;;;;;;;;;;5091202;28;20865;-69
2022/03/03 02:32:40;;;;;;;20.23;10.20;;;;;;;;;;5089855;28;20445;-69
2022/03/03 02:35:07;;;;;;;14.53;8.57;;;;;;;;;;5079998;28;20809;-69
2022/03/03 02:37:36;;;;;;;22.40;11.83;;;;;;;;;;5091310;28;20797;-69
2022/03/03 02:40:04;;;;;;;17.93;11.77;;;;;;;;;;5091648;28;20473;-69
2022/03/03 02:42:32;;;;;;;14.53;10.93;;;;;;;;;;5090091;28;20496;-69
2022/03/03 02:44:59;;;;;;;21.80;11.77;;;;;;;;;;5090182;28;20951;-69
2022/03/03 02:47:26;;;;;;;16.40;11.60;;;;;;;;;;5090960;28;20471;-69
2022/03/03 02:49:53;;;;;;;19.60;11.90;;;;;;;;;;5091203;28;20987;-70
2022/03/03 02:52:20;;;;;;;14.40;11.37;;;;;;;;;;5091034;28;20499;-70
2022/03/03 02:54:49;;;;;;;24.43;11.70;;;;;;;;;;5070903;28;20449;-70
2022/03/03 03:00:01;;;;;;;15.80;10.20;;;;;;;;;;5071194;28;20922;-69
2022/03/03 03:02:28;;;;;;;21.90;10.90;;;;;;;;;;5069019;28;20573;-69
2022/03/03 03:04:55;;;;;;;16.80;11.20;;;;;;;;;;5070573;28;20471;-69
2022/03/03 03:07:22;;;;;;;14.90;9.93;;;;;;;;;;5070049;28;20483;-69
2022/03/03 03:09:51;;;;;;;14.20;9.53;;;;;;;;;;5070750;28;20449;-69
2022/03/03 03:12:18;;;;;;;16.77;9.73;;;;;;;;;;5070628;28;20527;-69
2022/03/03 03:14:45;;;;;;;18.87;10.63;;;;;;;;;;5069673;28;20891;-69
2022/03/03 03:17:12;;;;;;;14.10;10.20;;;;;;;;;;5070635;28;20534;-69
2022/03/03 03:19:40;;;;;;;17.60;10.73;;;;;;;;;;5069816;28;20478;-69
2022/03/03 03:22:07;;;;;;;15.70;11.73;;;;;;;;;;5069929;28;20910;-70
2022/03/03 03:24:34;;;;;;;19.90;10.53;;;;;;;;;;5069124;28;20534;-70
2022/03/03 03:27:03;;;;;;;14.83;11.00;;;;;;;;;;5069613;28;20534;-69
2022/03/03 03:29:30;;;;;;;15.67;11.50;;;;;;;;;;5065261;28;20452;-69
2022/03/03 03:31:57;;;;;;;16.47;11.50;;;;;;;;;;5069814;28;20516;-69
2022/03/03 03:34:24;;;;;;;14.87;10.70;;;;;;;;;;5064650;28;20513;-69
2022/03/03 03:36:52;;;;;;;16.10;10.70;;;;;;;;;;5070620;28;20538;-69
2022/03/03 03:39:19;;;;;;;17.13;12.20;;;;;;;;;;5070643;28;20500;-68
2022/03/03 03:41:47;;;;;;;15.07;10.20;;;;;;;;;;5069835;28;20485;-69
2022/03/03 03:44:16;;;;;;;14.77;10.13;;;;;;;;;;5069857;28;20487;-68
2022/03/03 03:46:43;;;;;;;15.80;10.77;;;;;;;;;;5069383;28;21230;-69
2022/03/03 03:49:10;;;;;;;13.27;9.90;;;;;;;;;;5070354;28;20480;-69
2022/03/03 03:51:37;;;;;;;20.60;12.07;;;;;;;;;;5069284;28;20841;-68
2022/03/03 03:54:05;;;;;;;16.83;10.70;;;;;;;;;;5083974;28;20503;-69
2022/03/03 03:56:33;;;;;;;18.70;11.40;;;;;;;;;;5090386;28;20454;-69
2022/03/03 03:59:00;;;;;;;14.70;10.87;;;;;;;;;;5089361;28;20466;-68
2022/03/03 04:01:31;;;;;;;15.70;10.37;;;;;;;;;;5085466;28;20456;-68
2022/03/03 04:03:58;;;;;;;15.90;10.47;;;;;;;;;;5089794;28;20477;-69
2022/03/03 04:06:25;;;;;;;18.53;10.43;;;;;;;;;;5090101;28;20456;-69
2022/03/03 04:08:52;;;;;;;23.57;13.87;;;;;;;;;;5090186;28;20453;-69
2022/03/03 04:11:19;;;;;;;15.50;10.17;;;;;;;;;;5090668;28;20931;-69
2022/03/03 04:13:46;;;;;;;18.37;12.10;;;;;;;;;;5089096;28;20458;-68
2022/03/03 04:16:14;;;;;;;18.57;11.93;;;;;;;;;;5089887;28;20613;-69
2022/03/03 04:18:42;;;;;;;19.37;12.37;;;;;;;;;;5089467;28;21013;-69
2022/03/03 04:21:09;;;;;;;16.90;10.87;;;;;;;;;;5089237;28;20496;-69
2022/03/03 04:23:37;;;;;;;17.23;10.57;;;;;;;;;;5085361;28;20478;-69
2022/03/03 04:26:04;;;;;;;17.07;11.53;;;;;;;;;;5089751;28;20474;-69
2022/03/03 04:28:31;;;;;;;17.17;10.70;;;;;;;;;;5089710;28;20455;-69
2022/03/03 04:30:58;;;;;;;15.90;11.27;;;;;;;;;;5084714;28;20447;-69
2022/03/03 04:33:25;;;;;;;16.80;12.37;;;;;;;;;;5083167;28;20455;-69
2022/03/03 04:35:54;;;;;;;21.13;12.20;;;;;;;;;;5089503;28;20445;-69
2022/03/03 04:38:21;;;;;;;19.10;12.90;;;;;;;;;;5083351;28;20456;-69
2022/03/03 04:40:48;;;;;;;18.37;12.90;;;;;;;;;;5094484;28;20545;-69
2022/03/03 04:43:16;;;;;;;19.20;13.37;;;;;;;;;;5093872;28;20565;-69
2022/03/03 04:45:43;;;;;;;15.10;11.60;;;;;;;;;;5080293;28;21322;-68
2022/03/03 04:48:11;;;;;;;15.43;12.00;;;;;;;;;;5092389;28;20449;-69
2022/03/03 04:50:38;;;;;;;17.87;11.80;;;;;;;;;;5083849;28;20455;-69
2022/03/03 04:53:06;;;;;;;20.03;12.43;;;;;;;;;;5092795;28;20511;-69
2022/03/03 04:55:34;;;;;;;19.00;11.90;;;;;;;;;;5093295;28;20485;-69
2022/03/03 04:58:02;;;;;;;19.00;12.30;;;;;;;;;;5093744;28;20541;-73
2022/03/03 05:00:29;;;;;;;20.47;13.50;;;;;;;;;;5093084;28;20454;-69
2022/03/03 05:02:56;;;;;;;19.30;12.50;;;;;;;;;;5092502;28;20563;-70
2022/03/03 05:05:23;;;;;;;19.07;12.37;;;;;;;;;;5093580;28;20820;-69
2022/03/03 05:07:50;;;;;;;19.90;13.47;;;;;;;;;;5092761;28;20791;-70
2022/03/03 05:10:19;;;;;;;17.90;10.67;;;;;;;;;;5093495;28;20796;-70
2022/03/03 05:12:46;;;;;;;23.43;12.70;;;;;;;;;;5092282;28;20477;-70
2022/03/03 05:15:13;;;;;;;26.23;13.37;;;;;;;;;;5092723;28;20457;-70
2022/03/03 05:17:41;;;;;;;19.73;11.80;;;;;;;;;;5092449;28;20755;-69
2022/03/03 05:20:08;;;;;;;20.23;11.40;;;;;;;;;;5093088;28;20996;-69
2022/03/03 05:22:35;;;;;;;18.77;13.20;;;;;;;;;;5091666;28;20478;-70
2022/03/03 05:25:03;;;;;;;21.27;13.80;;;;;;;;;;5088333;28;20454;-70
2022/03/03 05:27:33;;;;;;;19.87;12.83;;;;;;;;;;5087735;28;20824;-70
2022/03/03 05:30:00;;;;;;;22.43;11.87;;;;;;;;;;5093027;28;20486;-70
2022/03/03 05:32:27;;;;;;;23.03;14.57;;;;;;;;;;5091839;28;20478;-69
2022/03/03 05:34:54;;;;;;;18.30;12.17;;;;;;;;;;5093011;28;20447;-69
2022/03/03 05:37:23;;;;;;;19.80;11.87;;;;;;;;;;5092483;28;20445;-69
2022/03/03 05:39:51;;;;;;;20.47;13.47;;;;;;;;;;5092965;28;20450;-69
2022/03/03 05:42:19;;;;;;;22.23;12.83;;;;;;;;;;5093099;28;20878;-69
2022/03/03 05:44:48;;;;;;;16.10;11.17;;;;;;;;;;5092920;28;20518;-69
2022/03/03 05:47:15;;;;;;;18.73;11.30;;;;;;;;;;5092528;28;20559;-69
2022/03/03 05:49:44;;;;;;;20.80;13.10;;;;;;;;;;5092057;28;20612;-69
2022/03/03 05:52:12;;;;;;;20.63;12.70;;;;;;;;;;5091988;28;20463;-68
2022/03/03 05:54:39;;;;;;;20.00;12.70;;;;;;;;;;5092178;28;20483;-69
2022/03/03 05:57:08;;;;;;;20.23;12.00;;;;;;;;;;5091988;28;20455;-69
2022/03/03 05:59:36;;;;;;;23.17;13.50;;;;;;;;;;5091628;28;20881;-68
2022/03/03 06:02:05;;;;;;;20.20;11.63;;;;;;;;;;5092790;28;20476;-69
2022/03/03 06:04:32;;;;;;;17.27;11.57;;;;;;;;;;5092055;28;20838;-69
2022/03/03 06:07:04;;;;;;;20.53;12.70;;;;;;;;;;5092449;28;20443;-69
2022/03/03 06:09:32;;;;;;;22.73;13.33;;;;;;;;;;5091433;28;20441;-69
2022/03/03 06:12:03;;;;;;;16.10;11.10;;;;;;;;;;5092310;28;20453;-69
2022/03/03 06:14:32;;;;;;;24.93;12.70;;;;;;;;;;5091305;28;20920;-70
2022/03/03 06:16:59;;;;;;;16.83;11.33;;;;;;;;;;5092241;28;20452;-69
2022/03/03 06:19:29;;;;;;;23.07;12.53;;;;;;;;;;5091540;28;20446;-70
2022/03/03 06:21:56;;;;;;;22.93;11.80;;;;;;;;;;5092195;28;20493;-69
2022/03/03 06:24:23;;;;;;;17.40;12.40;;;;;;;;;;5091095;28;20490;-69
2022/03/03 06:26:50;;;;;;;17.63;11.43;;;;;;;;;;5091844;28;20453;-69
2022/03/03 06:29:18;;;;;;;17.90;12.60;;;;;;;;;;5091805;28;20446;-68
2022/03/03 06:31:45;;;;;;;20.20;13.20;;;;;;;;;;5091289;28;20445;-68
2022/03/03 06:34:12;;;;;;;18.50;11.97;;;;;;;;;;5091718;28;20551;-69
2022/03/03 06:36:41;;;;;;;19.47;13.70;;;;;;;;;;5090467;28;20475;-69
2022/03/03 06:39:08;;;;;;;18.77;12.80;;;;;;;;;;5090678;28;20451;-68
2022/03/03 06:41:35;;;;;;;20.23;11.43;;;;;;;;;;5091056;28;20453;-68
2022/03/03 06:44:02;;;;;;;24.80;12.00;;;;;;;;;;5091429;28;20517;-68
2022/03/03 06:46:29;;;;;;;17.73;13.60;;;;;;;;;;5091266;28;20441;-68
2022/03/03 06:48:56;;;;;;;22.73;12.53;;;;;;;;;;5091634;28;20530;-70
2022/03/03 06:51:24;;;;;;;18.43;12.33;;;;;;;;;;5091159;28;20465;-69
2022/03/03 06:53:56;;;;;;;20.20;12.50;;;;;;;;;;5083806;28;20476;-69
2022/03/03 06:56:25;;;;;;;19.30;11.93;;;;;;;;;;5091441;28;20555;-69
2022/03/03 06:58:53;;;;;;;20.53;12.73;;;;;;;;;;5091540;28;20452;-70
2022/03/03 07:01:23;;;;;;;20.13;11.40;;;;;;;;;;5091454;28;20874;-69
2022/03/03 07:03:51;;;;;;;18.63;13.33;;;;;;;;;;5090829;28;21037;-69
2022/03/03 07:06:19;;;;;;;25.77;15.00;;;;;;;;;;5091260;28;20507;-69
2022/03/03 07:08:47;;;;;;;22.27;14.30;;;;;;;;;;5090197;28;20509;-69
2022/03/03 07:11:16;;;;;;;18.30;14.33;;;;;;;;;;5091676;28;20492;-68
2022/03/03 07:13:44;;;;;;;33.40;13.90;;;;;;;;;;5090455;28;20626;-67
2022/03/03 07:16:26;;;;;;;21.70;15.30;;;;;;;;;;5090841;28;20450;-69
2022/03/03 07:18:56;;;;;;;26.77;14.07;;;;;;;;;;5088183;28;20937;-68
2022/03/03 07:21:27;;;;;;;23.93;15.27;;;;;;;;;;5090900;28;20455;-68
2022/03/03 07:24:00;;;;;;;23.50;15.60;;;;;;;;;;5090904;28;20528;-69
2022/03/03 07:26:30;;;;;;;24.20;13.93;;;;;;;;;;5090486;28;20528;-68
2022/03/03 07:29:01;;;;;;;20.60;13.43;;;;;;;;;;5090235;28;20445;-69
2022/03/03 07:31:31;;;;;;;19.07;14.50;;;;;;;;;;5090432;28;20445;-68
2022/03/03 07:34:00;;;;;;;25.07;15.67;;;;;;;;;;5090766;28;20438;-69
2022/03/03 07:36:34;;;;;;;23.83;14.83;;;4.40;99.90;;;;;;5090805;28;20449;-68
2022/03/03 07:39:02;;;;;;;22.50;14.23;;;;;;;;;;5090756;28;20518;-68
2022/03/03 07:41:31;;;;;;;22.13;14.40;;;;;;;;;;5090255;28;20444;-69
2022/03/03 07:43:59;;;;;;;18.03;14.10;;;;;;;;;;5090800;28;20477;-69
2022/03/03 07:46:27;;;;;;;22.33;14.13;;;;;;;;;;5090615;28;20530;-69
2022/03/03 07:48:55;;;;;;;25.03;15.00;;;;;;;;;;5090796;28;20844;-69
2022/03/03 07:51:23;;;;;;;25.03;15.23;;;;;;;;;;5090762;28;20491;-69
2022/03/03 07:53:51;;;;;;;22.87;14.57;;;;;;;;;;5090881;28;20971;-69
2022/03/03 07:56:21;;;;;;;26.23;13.43;;;;;;;;;;5091218;28;20447;-68
2022/03/03 07:58:51;;;;;;;25.47;14.57;;;;;;;;;;5090707;28;20467;-68
2022/03/03 08:01:19;;;;;;;21.83;14.53;;;;;;;;;;5091281;28;20448;-68
2022/03/03 08:03:46;;;;;;;20.50;13.63;;;;;;;;;;5089739;28;20484;-68
2022/03/03 08:06:14;;;;;;;22.60;15.37;;;;;;;;;;5090656;28;20451;-69
2022/03/03 08:08:42;;;;;;;24.07;15.10;;;;;;;;;;5089426;28;20582;-68
2022/03/03 08:11:10;;;;;;;24.87;15.20;;;;;;;;;;5090628;28;20448;-69
2022/03/03 08:13:37;;;;;;;21.07;14.57;;;;;;;;;;5090529;28;20449;-68
2022/03/03 08:16:07;;;;;;;24.20;15.07;;;;;;;;;;5094176;28;20496;-69
2022/03/03 08:18:36;;;;;;;23.30;15.40;;;;;;;;;;5093194;28;20486;-69
2022/03/03 08:21:04;;;;;;;24.80;16.27;;;;;;;;;;5093982;28;20555;-69
2022/03/03 08:23:32;;;;;;;24.67;15.90;;;;;;;;;;5093159;28;20567;-69
2022/03/03 08:26:00;;;;;;;23.13;15.10;;;;;;;;;;5094518;28;20456;-68
2022/03/03 08:28:28;;;;;;;22.90;14.90;;;;;;;;;;5093229;28;20480;-68
2022/03/03 08:30:57;;;;;;;23.10;14.73;;;;;;;;;;5094215;28;20453;-68
2022/03/03 08:33:33;;;;;;;24.40;15.97;;;;;;;;;;5093316;28;20535;-71
2022/03/03 08:36:01;;;;;;;28.83;15.37;;;;;;;;;;5094460;28;20440;-69
2022/03/03 08:38:34;;;;;;;25.83;16.50;;;;;;;;;;5092925;28;20932;-69
2022/03/03 08:41:02;;;;;;;24.03;16.50;;;;;;;;;;5094491;28;20513;-68
2022/03/03 08:43:29;;;;;;;22.27;14.97;;;;;;;;;;5093491;28;20476;-69
2022/03/03 08:46:02;;;;;;;20.63;15.23;;;;;;;;;;5093650;28;20483;-68
2022/03/03 08:48:32;;;;;;;23.07;15.40;;;;;;;;;;5092413;28;20944;-69
2022/03/03 08:51:00;;;;;;;23.87;16.33;;;;;;;;;;5094081;28;20510;-69
2022/03/03 08:53:27;;;;;;;23.87;17.10;;;;;;;;;;5093016;28;20473;-69
2022/03/03 08:55:54;;;;;;;24.33;16.00;;;;;;;;;;5094265;28;20820;-68
2022/03/03 08:58:22;;;;;;;19.67;15.50;;;;;;;;;;5092821;28;20448;-68
2022/03/03 09:00:50;;;;;;;25.30;15.93;;;;;;;;;;5093852;28;20481;-68
2022/03/03 09:03:21;;;;;;;20.90;15.00;;;;;;;;;;5093762;28;20821;-68
2022/03/03 09:05:49;;;;;;;25.10;17.47;;;;;;;;;;5093885;28;20500;-70
2022/03/03 09:08:17;;;;;;;21.73;14.20;;;;;;;;;;5093008;28;20459;-69
2022/03/03 09:10:44;;;;;;;28.30;15.83;;;;;;;;;;5092798;28;20608;-69
2022/03/03 09:13:11;;;;;;;34.23;17.40;;;;;;;;;;5093275;28;20603;-68
2022/03/03 09:15:38;;;;;;;22.80;16.43;;;;;;;;;;5092363;28;20949;-69
2022/03/03 09:18:06;;;;;;;22.23;16.30;;;;;;;;;;5092534;28;20813;-69
2022/03/03 09:20:34;;;;;;;30.10;16.30;;;;;;;;;;5092525;28;20452;-69
2022/03/03 09:23:02;;;;;;;23.37;16.10;;;;;;;;;;5092914;28;20557;-69
2022/03/03 09:25:30;;;;;;;26.57;16.97;;;;;;;;;;5090947;28;20519;-69
2022/03/03 09:27:58;;;;;;;23.70;15.90;;;;;;;;;;5092454;28;20455;-69
2022/03/03 09:30:25;;;;;;;33.03;19.07;;;;;;;;;;5092302;28;20479;-68
2022/03/03 09:32:52;;;;;;;25.87;16.30;;;;;;;;;;5093306;28;20448;-68
2022/03/03 09:35:19;;;;;;;22.80;14.77;;;;;;;;;;5093238;28;20481;-69
2022/03/03 09:37:47;;;;;;;20.07;15.13;;;;;;;;;;5093155;28;20539;-69
2022/03/03 09:40:15;;;;;;;26.87;17.10;;;;;;;;;;5093048;28;20470;-69
2022/03/03 09:42:43;;;;;;;22.70;16.63;;;;;;;;;;5092621;28;20864;-69
2022/03/03 09:45:11;;;;;;;27.23;16.67;;;;;;;;;;5092781;28;20980;-69
2022/03/03 09:47:38;;;;;;;26.53;16.83;;;;;;;;;;5092064;28;20436;-69
2022/03/03 09:50:06;;;;;;;23.00;15.63;;;;;;;;;;5092503;28;20502;-69
2022/03/03 09:52:33;;;;;;;25.63;17.03;;;;;;;;;;5091650;28;20452;-68
2022/03/03 09:55:01;;;;;;;28.53;16.40;;;;;;;;;;5092676;28;20450;-69
2022/03/03 09:57:29;;;;;;;24.57;16.73;;;;;;;;;;5091807;28;20500;-69
2022/03/03 09:59:58;;;;;;;25.33;17.87;;;;;;;;;;5092597;28;20448;-69
2022/03/03 10:02:25;;;;;;;28.63;17.23;;;;;;;;;;5092116;28;20444;-69
2022/03/03 10:04:56;;;;;;;25.30;15.90;;;;;;;;;;5092099;28;20468;-69
2022/03/03 10:07:24;;;;;;;22.80;16.13;;;;;;;;;;5091398;28;20932;-69
2022/03/03 10:10:10;;;;;;;31.20;17.57;;;;;;;;;;5092176;28;20859;-70
2022/03/03 10:12:47;;;;;;;25.40;17.37;;;;;;;;;;5091177;28;20494;-69
2022/03/03 10:15:15;;;;;;;26.67;17.07;;;;;;;;;;5092679;28;20527;-68
2022/03/03 10:17:42;;;;;;;22.43;17.10;;;;;;;;;;5091565;28;20523;-70
2022/03/03 10:20:10;;;;;;;27.50;18.37;;;;;;;;;;5092203;28;20540;-69
2022/03/03 10:22:44;;;;;;;26.83;16.90;;;;;;;;;;5091843;28;20457;-69
2022/03/03 10:25:12;;;;;;;21.70;16.23;;;;;;;;;;5091715;28;20482;-70
2022/03/03 10:27:39;;;;;;;24.10;17.40;;;;;;;;;;5090740;28;20452;-69
2022/03/03 10:30:10;;;;;;;24.40;16.57;;;;;;;;;;5091786;28;20448;-69
2022/03/03 10:32:38;;;;;;;27.43;17.10;;;;;;;;;;5090635;28;20480;-70
2022/03/03 10:35:14;;;;;;;25.60;17.53;;;;;;;;;;5091908;28;20453;-70
2022/03/03 10:37:41;;;;;;;24.53;16.30;;;;;;;;;;5077635;28;20444;-69
2022/03/03 10:40:11;;;;;;;18.80;14.83;;;;;;;;;;5091632;28;20444;-69
2022/03/03 10:42:39;;;;;;;23.20;15.90;;;;;;;;;;5091436;28;20854;-69
2022/03/03 10:45:09;;;;;;;24.40;15.37;;;;;;;;;;5091773;28;20488;-70
2022/03/03 10:47:37;;;;;;;22.30;16.57;;;;;;;;;;5090841;28;20440;-69
2022/03/03 10:50:04;;;;;;;20.63;15.47;;;;;;;;;;5091645;28;20531;-69
2022/03/03 10:52:32;;;;;;;23.10;15.90;;;;;;;;;;5090289;28;20487;-69
2022/03/03 10:55:01;;;;;;;20.87;15.33;;;;;;;;;;5091393;28;20463;-70
2022/03/03 10:57:32;;;;;;;21.17;15.13;;;;;;;;;;5090999;28;20453;-69
2022/03/03 10:59:59;;;;;;;20.27;15.93;;;;;;;;;;5091451;28;20996;-70
2022/03/03 11:02:29;;;;;;;20.63;14.60;;;;;;;;;;5091291;28;20449;-70
2022/03/03 11:04:56;;;;;;;22.17;14.50;;;;;;;;;;5091587;28;20514;-70
2022/03/03 11:07:23;;;;;;;20.07;14.77;;;;;;;;;;5090317;28;20490;-69
2022/03/03 11:09:51;;;;;;;22.00;16.43;;;;;;;;;;5091162;28;20527;-70
2022/03/03 11:12:19;;;;;;;22.00;15.10;;;;;;;;;;5091426;28;20528;-69
2022/03/03 11:14:46;;;;;;;19.03;14.67;;;;;;;;;;5090489;28;20452;-69
2022/03/03 11:17:14;;;;;;;25.40;16.07;;;;;;;;;;5090786;28;20813;-70
2022/03/03 11:19:42;;;;;;;22.93;15.50;;;;;;;;;;5090294;28;20547;-70
2022/03/03 11:22:10;;;;;;;22.67;15.80;;;;;;;;;;5091249;28;20543;-70
2022/03/03 11:24:38;;;;;;;17.50;13.10;;;;;;;;;;5076897;28;20451;-70
2022/03/03 11:27:06;;;;;;;19.53;15.20;;;;;;;;;;5090622;28;20444;-70
2022/03/03 11:29:37;;;;;;;20.40;13.73;;;;;;;;;;5090265;28;20445;-70
2022/03/03 11:32:06;;;;;;;20.73;14.40;;;;;;;;;;5090942;28;20436;-70
2022/03/03 11:34:51;;;;;;;19.57;14.77;;;;;;;;;;5090199;28;20460;-70
2022/03/03 11:37:21;;;;;;;22.73;15.97;;;;;;;;;;5090177;28;20932;-70
2022/03/03 11:39:49;;;;;;;24.83;15.00;;;;;;;;;;5091235;28;20447;-71
2022/03/03 11:42:18;;;;;;;16.50;13.40;;;;;;;;;;5090865;28;20474;-70
2022/03/03 11:44:46;;;;;;;21.00;15.23;;;;;;;;;;5090982;28;20493;-69
2022/03/03 11:47:20;;;;;;;22.47;15.40;;;;;;;;;;5090500;28;20444;-69
2022/03/03 11:50:05;;;;;;;24.40;15.40;;;;;;;;;;5094403;28;20530;-69
2022/03/03 11:52:34;;;;;;;23.07;15.80;;;;;;;;;;5094740;28;20858;-70
2022/03/03 11:55:21;;;;;;;19.00;14.70;;;;;;;;;;5094963;28;20821;-69
2022/03/03 11:57:48;;;;;;;24.27;16.50;;;;;;;;;;5094414;28;20448;-69
2022/03/03 12:00:18;;;;;;;26.90;14.87;;;;;;;;;;5094976;28;20874;-69
2022/03/03 12:02:54;;;;;;;22.13;15.10;;;;;;;;;;5093897;28;20441;-69
2022/03/03 12:05:31;;;;;;;24.37;15.90;;;;;;;;;;5094967;28;20554;-69
2022/03/03 12:08:01;;;;;;;24.30;15.47;;;;;;;;;;5094300;28;21030;-69
2022/03/03 12:10:28;;;;;;;20.73;15.00;;;;;;;;;;5093459;28;21250;-70
2022/03/03 12:13:10;;;;;;;20.27;13.87;;;;;;;;;;5094183;28;20472;-69
2022/03/03 12:15:38;;;;;;;19.90;14.63;;;;;;;;;;5092961;28;20465;-69
2022/03/03 12:18:08;;;;;;;19.87;15.27;;;;;;;;;;5094169;28;20545;-69
2022/03/03 12:20:37;;;;;;;20.87;14.60;;;;;;;;;;5093780;28;20448;-69
2022/03/03 12:23:13;;;;;;;19.83;13.73;;;;;;;;;;5094130;28;20445;-69
2022/03/03 12:26:10;;;;;;;19.10;14.67;;;;;;;;;;5093022;28;20471;-69
2022/03/03 12:28:39;;;;;;;23.37;14.50;;;;;;;;;;5010862;28;20447;-69
2022/03/03 12:31:20;;;;;;;21.20;14.77;;;;;;;;;;5076022;28;20530;-69
2022/03/03 12:33:55;;;;;;;23.37;16.23;;;;;;;;;;5093719;28;20456;-69
2022/03/03 12:36:23;;;;;;;17.63;13.33;;;;;;;;;;5094004;28;20509;-69
2022/03/03 12:38:53;;;;;;;21.83;14.20;;;;;;;;;;5094316;28;20516;-69
2022/03/03 12:41:21;;;;;;;20.90;14.77;;;;;;;;;;5094663;28;20457;-70
2022/03/03 12:43:49;;;;;;;19.23;13.60;;;;;;;;;;5093883;28;20441;-70
2022/03/03 12:46:16;;;;;;;21.90;14.60;;;;;;;;;;5093705;28;20581;-69
2022/03/03 12:48:46;;;;;;;17.87;13.60;;;;;;;;;;5092934;28;20456;-69
2022/03/03 12:51:14;;;;;;;18.97;14.20;;;;;;;;;;5094245;28;20458;-69
2022/03/03 12:53:43;;;;;;;19.50;14.37;;;;;;;;;;5093408;28;20491;-70
2022/03/03 12:56:12;;;;;;;23.37;14.60;;;;;;;;;;5094020;28;20532;-69
2022/03/03 12:58:39;;;;;;;22.90;14.60;;;;;;;;;;5092899;28;20454;-69
2022/03/03 13:01:07;;;;;;;21.80;15.63;;;;;;;;;;5093435;28;20497;-69
2022/03/03 13:03:37;;;;;;;20.87;14.37;;;;;;;;;;5092881;28;20476;-69
2022/03/03 13:06:04;;;;;;;19.63;13.93;;;;;;;;;;5093579;28;20480;-69
2022/03/03 13:08:32;;;;;;;23.30;15.37;;;;;;;;;;5092570;28;20483;-70
2022/03/03 13:11:01;;;;;;;23.87;16.30;;;;;;;;;;5093474;28;20437;-69
2022/03/03 13:13:31;;;;;;;20.73;15.20;;;;;;;;;;5093113;28;20453;-70
2022/03/03 13:15:59;;;;;;;20.53;14.43;;;;;;;;;;5093580;28;20458;-70
2022/03/03 13:18:27;;;;;;;25.80;16.27;;;;;;;;;;5092591;28;20562;-70
2022/03/03 13:20:55;;;;;;;23.30;16.73;;;;;;;;;;5093064;28;20480;-69
2022/03/03 13:23:22;;;;;;;21.43;15.07;;;;;;;;;;5093299;28;20440;-70
2022/03/03 13:26:03;;;;;;;23.87;16.27;;;;;;;;;;5092547;28;20476;-70
2022/03/03 13:28:32;;;;;;;23.97;17.67;;;;;;;;;;5092061;28;20501;-69
2022/03/03 13:31:02;;;;;;;22.57;16.70;;;;;;;;;;5092950;28;20492;-70
2022/03/03 13:33:46;;;;;;;22.03;16.33;;;;;;;;;;5092415;28;20528;-69
2022/03/03 13:36:14;;;;;;;25.27;17.30;;;;;;;;;;5081593;28;20440;-69
2022/03/03 13:38:41;;;;;;;25.27;17.97;;;;;;;;;;5091838;28;20521;-68
2022/03/03 13:41:22;;;;;;;21.97;16.83;;;;;;;;;;5092832;28;20973;-69
2022/03/03 13:43:51;;;;;;;22.63;18.03;;;;;;;;;;5092928;28;20467;-69
2022/03/03 13:46:30;;;;;;;21.30;16.77;;;;;;;;;;5092842;28;20484;-68
2022/03/03 13:48:57;;;;;;;24.13;18.90;;;;;;;;;;5093119;28;20460;-69
2022/03/03 13:51:25;;;;;;;25.80;18.27;;;;;;;;;;5092353;28;20514;-70
2022/03/03 13:53:59;;;;;;;26.20;19.50;;;;;;;;;;5079275;28;20480;-69
2022/03/03 13:56:29;;;;;;;24.40;19.77;;;;;;;;;;5091413;28;20543;-70
2022/03/03 13:59:08;;;;;;;27.03;19.40;;;;;;;;;;5092595;28;20455;-70
2022/03/03 14:01:36;;;;;;;26.70;18.80;;;;;;;;;;5092222;28;20532;-69
2022/03/03 14:04:10;;;;;;;23.97;17.67;;;;;;;;;;5092394;28;20444;-69
2022/03/03 14:06:41;;;;;;;23.17;18.30;;;;;;;;;;5091282;28;20476;-70
2022/03/03 14:09:08;;;;;;;26.93;18.30;;;;;;;;;;5091878;28;20532;-70
2022/03/03 14:11:36;;;;;;;23.70;18.60;;;;;;;;;;5090707;28;20530;-70
2022/03/03 14:14:04;;;;;;;26.50;17.40;;;;;;;;;;5092093;28;20535;-69
2022/03/03 14:16:35;;;;;;;27.53;18.03;;;;;;;;;;5090760;28;20457;-70
2022/03/03 14:19:02;;;;;;;25.10;18.73;;;;;;;;;;5092142;28;20449;-70
2022/03/03 14:21:30;;;;;;;22.53;17.80;;;;;;;;;;5091180;28;20548;-70
2022/03/03 14:23:58;;;;;;;24.67;18.20;;;;;;;;;;5091620;28;20449;-69
2022/03/03 14:26:26;;;;;;;23.67;17.83;;;;;;;;;;5090571;28;21000;-70
2022/03/03 14:28:53;;;;;;;22.43;16.30;;;;;;;;;;5091843;28;21039;-71